sensor_id;sensor_type;location;lat;lon;timestamp;P1;durP1;ratioP1;P2;durP2;ratioP2
59147;SDS011;44930;52.878;6.168;2023-07-29T00:01:22;10.57;;;9.30;;
59147;SDS011;44930;52.878;6.168;2023-07-29T00:03:48;11.98;;;9.02;;
59147;SDS011;44930;52.878;6.168;2023-07-29T00:06:13;10.13;;;8.98;;
59147;SDS011;44930;52.878;6.168;2023-07-29T00:08:39;10.23;;;8.80;;
59147;SDS011;44930;52.878;6.168;2023-07-29T00:11:04;12.48;;;8.75;;
59147;SDS011;44930;52.878;6.168;2023-07-29T00:13:30;9.73;;;8.73;;
59147;SDS011;44930;52.878;6.168;2023-07-29T00:15:55;15.60;;;9.27;;
59147;SDS011;44930;52.878;6.168;2023-07-29T00:18:21;9.15;;;7.97;;
59147;SDS011;44930;52.878;6.168;2023-07-29T00:20:48;10.75;;;8.75;;
59147;SDS011;44930;52.878;6.168;2023-07-29T00:23:14;9.25;;;8.25;;
59147;SDS011;44930;52.878;6.168;2023-07-29T00:25:39;11.35;;;7.97;;
59147;SDS011;44930;52.878;6.168;2023-07-29T00:28:05;9.40;;;7.95;;
59147;SDS011;44930;52.878;6.168;2023-07-29T00:30:31;9.23;;;8.05;;
59147;SDS011;44930;52.878;6.168;2023-07-29T00:32:56;9.48;;;8.40;;
59147;SDS011;44930;52.878;6.168;2023-07-29T00:35:22;11.30;;;8.55;;
59147;SDS011;44930;52.878;6.168;2023-07-29T00:37:47;9.73;;;7.72;;
59147;SDS011;44930;52.878;6.168;2023-07-29T00:40:19;8.13;;;7.25;;
59147;SDS011;44930;52.878;6.168;2023-07-29T00:42:45;9.15;;;7.63;;
59147;SDS011;44930;52.878;6.168;2023-07-29T00:45:11;7.50;;;6.80;;
59147;SDS011;44930;52.878;6.168;2023-07-29T00:47:37;10.57;;;8.25;;
59147;SDS011;44930;52.878;6.168;2023-07-29T00:50:03;10.32;;;6.95;;
59147;SDS011;44930;52.878;6.168;2023-07-29T00:52:29;9.15;;;7.30;;
59147;SDS011;44930;52.878;6.168;2023-07-29T00:54:55;11.20;;;7.82;;
59147;SDS011;44930;52.878;6.168;2023-07-29T00:57:21;14.65;;;6.68;;
59147;SDS011;44930;52.878;6.168;2023-07-29T00:59:47;9.00;;;7.10;;
59147;SDS011;44930;52.878;6.168;2023-07-29T01:02:13;7.07;;;6.20;;
59147;SDS011;44930;52.878;6.168;2023-07-29T01:04:38;10.40;;;7.45;;
59147;SDS011;44930;52.878;6.168;2023-07-29T01:10:00;10.23;;;7.03;;
59147;SDS011;44930;52.878;6.168;2023-07-29T01:12:34;10.38;;;7.13;;
59147;SDS011;44930;52.878;6.168;2023-07-29T01:15:21;8.02;;;7.10;;
59147;SDS011;44930;52.878;6.168;2023-07-29T01:17:54;9.05;;;7.22;;
59147;SDS011;44930;52.878;6.168;2023-07-29T01:20:29;8.23;;;7.30;;
59147;SDS011;44930;52.878;6.168;2023-07-29T01:23:02;10.75;;;6.82;;
59147;SDS011;44930;52.878;6.168;2023-07-29T01:25:27;8.88;;;6.70;;
59147;SDS011;44930;52.878;6.168;2023-07-29T01:27:53;8.10;;;6.63;;
59147;SDS011;44930;52.878;6.168;2023-07-29T01:30:20;8.23;;;7.32;;
59147;SDS011;44930;52.878;6.168;2023-07-29T01:32:53;7.53;;;6.70;;
59147;SDS011;44930;52.878;6.168;2023-07-29T01:35:31;10.77;;;7.43;;
59147;SDS011;44930;52.878;6.168;2023-07-29T01:38:05;7.88;;;6.50;;
59147;SDS011;44930;52.878;6.168;2023-07-29T01:40:45;9.05;;;7.03;;
59147;SDS011;44930;52.878;6.168;2023-07-29T01:43:13;11.45;;;6.78;;
59147;SDS011;44930;52.878;6.168;2023-07-29T01:45:39;9.20;;;6.63;;
59147;SDS011;44930;52.878;6.168;2023-07-29T01:48:05;7.60;;;6.47;;
59147;SDS011;44930;52.878;6.168;2023-07-29T01:50:32;9.98;;;6.78;;
59147;SDS011;44930;52.878;6.168;2023-07-29T01:52:58;9.10;;;6.47;;
59147;SDS011;44930;52.878;6.168;2023-07-29T01:55:24;8.48;;;6.53;;
59147;SDS011;44930;52.878;6.168;2023-07-29T01:57:49;9.63;;;6.70;;
59147;SDS011;44930;52.878;6.168;2023-07-29T02:00:16;9.73;;;6.68;;
59147;SDS011;44930;52.878;6.168;2023-07-29T02:02:42;8.93;;;6.93;;
59147;SDS011;44930;52.878;6.168;2023-07-29T02:05:08;8.32;;;6.13;;
59147;SDS011;44930;52.878;6.168;2023-07-29T02:07:33;9.98;;;6.40;;
59147;SDS011;44930;52.878;6.168;2023-07-29T02:09:59;7.38;;;6.20;;
59147;SDS011;44930;52.878;6.168;2023-07-29T02:12:25;7.45;;;6.53;;
59147;SDS011;44930;52.878;6.168;2023-07-29T02:14:50;7.63;;;6.07;;
59147;SDS011;44930;52.878;6.168;2023-07-29T02:17:16;11.57;;;6.57;;
59147;SDS011;44930;52.878;6.168;2023-07-29T02:19:42;9.95;;;5.95;;
59147;SDS011;44930;52.878;6.168;2023-07-29T02:22:08;9.02;;;6.20;;
59147;SDS011;44930;52.878;6.168;2023-07-29T02:24:33;7.55;;;5.85;;
59147;SDS011;44930;52.878;6.168;2023-07-29T02:26:59;10.13;;;6.03;;
59147;SDS011;44930;52.878;6.168;2023-07-29T02:29:24;8.07;;;5.35;;
59147;SDS011;44930;52.878;6.168;2023-07-29T02:31:50;8.02;;;5.32;;
59147;SDS011;44930;52.878;6.168;2023-07-29T02:34:16;7.30;;;5.00;;
59147;SDS011;44930;52.878;6.168;2023-07-29T02:36:41;7.68;;;4.45;;
59147;SDS011;44930;52.878;6.168;2023-07-29T02:39:07;6.22;;;4.13;;
59147;SDS011;44930;52.878;6.168;2023-07-29T02:41:33;9.65;;;4.45;;
59147;SDS011;44930;52.878;6.168;2023-07-29T02:43:58;6.72;;;4.35;;
59147;SDS011;44930;52.878;6.168;2023-07-29T02:46:24;6.38;;;4.28;;
59147;SDS011;44930;52.878;6.168;2023-07-29T02:48:50;4.85;;;3.60;;
59147;SDS011;44930;52.878;6.168;2023-07-29T02:51:15;5.25;;;3.65;;
59147;SDS011;44930;52.878;6.168;2023-07-29T02:53:41;6.90;;;3.80;;
59147;SDS011;44930;52.878;6.168;2023-07-29T02:56:07;6.40;;;3.42;;
59147;SDS011;44930;52.878;6.168;2023-07-29T02:58:34;5.40;;;3.17;;
59147;SDS011;44930;52.878;6.168;2023-07-29T03:01:00;6.43;;;3.08;;
59147;SDS011;44930;52.878;6.168;2023-07-29T03:03:27;5.60;;;3.35;;
59147;SDS011;44930;52.878;6.168;2023-07-29T03:08:26;8.77;;;3.22;;
59147;SDS011;44930;52.878;6.168;2023-07-29T03:10:51;9.98;;;3.38;;
59147;SDS011;44930;52.878;6.168;2023-07-29T03:13:17;8.05;;;3.35;;
59147;SDS011;44930;52.878;6.168;2023-07-29T03:15:42;5.82;;;3.45;;
59147;SDS011;44930;52.878;6.168;2023-07-29T03:18:08;8.43;;;3.53;;
59147;SDS011;44930;52.878;6.168;2023-07-29T03:20:33;5.25;;;3.60;;
59147;SDS011;44930;52.878;6.168;2023-07-29T03:22:59;5.68;;;3.75;;
59147;SDS011;44930;52.878;6.168;2023-07-29T03:25:24;8.43;;;4.00;;
59147;SDS011;44930;52.878;6.168;2023-07-29T03:27:50;7.32;;;3.78;;
59147;SDS011;44930;52.878;6.168;2023-07-29T03:30:18;7.75;;;4.32;;
59147;SDS011;44930;52.878;6.168;2023-07-29T03:32:45;7.72;;;3.78;;
59147;SDS011;44930;52.878;6.168;2023-07-29T03:35:11;6.25;;;4.10;;
59147;SDS011;44930;52.878;6.168;2023-07-29T03:37:37;7.35;;;4.00;;
59147;SDS011;44930;52.878;6.168;2023-07-29T03:40:02;6.75;;;4.22;;
59147;SDS011;44930;52.878;6.168;2023-07-29T03:42:29;6.57;;;5.00;;
59147;SDS011;44930;52.878;6.168;2023-07-29T03:44:54;6.50;;;4.63;;
59147;SDS011;44930;52.878;6.168;2023-07-29T03:47:20;6.22;;;4.57;;
59147;SDS011;44930;52.878;6.168;2023-07-29T03:49:46;5.20;;;3.80;;
59147;SDS011;44930;52.878;6.168;2023-07-29T03:52:11;7.38;;;4.38;;
59147;SDS011;44930;52.878;6.168;2023-07-29T03:54:37;6.53;;;4.40;;
59147;SDS011;44930;52.878;6.168;2023-07-29T03:57:02;10.40;;;4.30;;
59147;SDS011;44930;52.878;6.168;2023-07-29T03:59:28;7.53;;;4.03;;
59147;SDS011;44930;52.878;6.168;2023-07-29T04:01:54;6.85;;;3.65;;
59147;SDS011;44930;52.878;6.168;2023-07-29T04:04:19;7.07;;;4.03;;
59147;SDS011;44930;52.878;6.168;2023-07-29T04:06:45;5.53;;;3.70;;
59147;SDS011;44930;52.878;6.168;2023-07-29T04:09:11;5.88;;;3.50;;
59147;SDS011;44930;52.878;6.168;2023-07-29T04:11:37;5.57;;;3.42;;
59147;SDS011;44930;52.878;6.168;2023-07-29T04:14:02;5.57;;;3.53;;
59147;SDS011;44930;52.878;6.168;2023-07-29T04:16:28;7.13;;;3.97;;
59147;SDS011;44930;52.878;6.168;2023-07-29T04:18:53;5.63;;;3.53;;
59147;SDS011;44930;52.878;6.168;2023-07-29T04:21:19;5.50;;;3.15;;
59147;SDS011;44930;52.878;6.168;2023-07-29T04:23:45;4.60;;;3.55;;
59147;SDS011;44930;52.878;6.168;2023-07-29T04:26:10;5.22;;;2.78;;
59147;SDS011;44930;52.878;6.168;2023-07-29T04:28:36;5.35;;;3.45;;
59147;SDS011;44930;52.878;6.168;2023-07-29T04:31:01;6.38;;;3.35;;
59147;SDS011;44930;52.878;6.168;2023-07-29T04:33:29;5.95;;;3.25;;
59147;SDS011;44930;52.878;6.168;2023-07-29T04:35:55;5.65;;;2.83;;
59147;SDS011;44930;52.878;6.168;2023-07-29T04:38:20;6.40;;;2.65;;
59147;SDS011;44930;52.878;6.168;2023-07-29T04:40:48;6.45;;;2.67;;
59147;SDS011;44930;52.878;6.168;2023-07-29T04:43:14;4.70;;;2.53;;
59147;SDS011;44930;52.878;6.168;2023-07-29T04:45:43;3.85;;;2.53;;
59147;SDS011;44930;52.878;6.168;2023-07-29T04:48:08;4.22;;;2.35;;
59147;SDS011;44930;52.878;6.168;2023-07-29T04:50:34;5.90;;;2.50;;
59147;SDS011;44930;52.878;6.168;2023-07-29T04:53:00;3.38;;;2.10;;
59147;SDS011;44930;52.878;6.168;2023-07-29T04:55:25;3.88;;;2.25;;
59147;SDS011;44930;52.878;6.168;2023-07-29T04:57:51;5.55;;;2.42;;
59147;SDS011;44930;52.878;6.168;2023-07-29T05:00:17;7.35;;;2.50;;
59147;SDS011;44930;52.878;6.168;2023-07-29T05:02:42;5.97;;;2.63;;
59147;SDS011;44930;52.878;6.168;2023-07-29T05:05:08;5.53;;;2.38;;
59147;SDS011;44930;52.878;6.168;2023-07-29T05:07:33;3.35;;;2.35;;
59147;SDS011;44930;52.878;6.168;2023-07-29T05:09:59;5.47;;;2.72;;
59147;SDS011;44930;52.878;6.168;2023-07-29T05:12:24;4.55;;;2.40;;
59147;SDS011;44930;52.878;6.168;2023-07-29T05:14:50;6.00;;;2.20;;
59147;SDS011;44930;52.878;6.168;2023-07-29T05:17:16;5.35;;;2.78;;
59147;SDS011;44930;52.878;6.168;2023-07-29T05:19:41;4.88;;;2.22;;
59147;SDS011;44930;52.878;6.168;2023-07-29T05:22:07;3.70;;;2.35;;
59147;SDS011;44930;52.878;6.168;2023-07-29T05:24:33;8.55;;;2.40;;
59147;SDS011;44930;52.878;6.168;2023-07-29T05:26:58;5.72;;;2.47;;
59147;SDS011;44930;52.878;6.168;2023-07-29T05:29:24;5.20;;;2.30;;
59147;SDS011;44930;52.878;6.168;2023-07-29T05:31:49;5.40;;;2.72;;
59147;SDS011;44930;52.878;6.168;2023-07-29T05:34:15;4.50;;;2.30;;
59147;SDS011;44930;52.878;6.168;2023-07-29T05:36:40;5.43;;;2.60;;
59147;SDS011;44930;52.878;6.168;2023-07-29T05:39:06;4.65;;;2.40;;
59147;SDS011;44930;52.878;6.168;2023-07-29T05:41:32;4.63;;;2.58;;
59147;SDS011;44930;52.878;6.168;2023-07-29T05:43:58;6.72;;;3.35;;
59147;SDS011;44930;52.878;6.168;2023-07-29T05:46:24;11.30;;;2.60;;
59147;SDS011;44930;52.878;6.168;2023-07-29T05:48:49;6.18;;;2.67;;
59147;SDS011;44930;52.878;6.168;2023-07-29T05:51:15;6.78;;;2.92;;
59147;SDS011;44930;52.878;6.168;2023-07-29T05:53:40;6.00;;;2.67;;
59147;SDS011;44930;52.878;6.168;2023-07-29T05:56:06;6.25;;;3.20;;
59147;SDS011;44930;52.878;6.168;2023-07-29T05:58:31;12.00;;;3.25;;
59147;SDS011;44930;52.878;6.168;2023-07-29T06:00:57;6.50;;;3.40;;
59147;SDS011;44930;52.878;6.168;2023-07-29T06:03:23;8.18;;;3.72;;
59147;SDS011;44930;52.878;6.168;2023-07-29T06:05:49;5.78;;;2.78;;
59147;SDS011;44930;52.878;6.168;2023-07-29T06:08:15;9.90;;;4.50;;
59147;SDS011;44930;52.878;6.168;2023-07-29T06:10:40;7.60;;;3.72;;
59147;SDS011;44930;52.878;6.168;2023-07-29T06:13:06;9.05;;;3.40;;
59147;SDS011;44930;52.878;6.168;2023-07-29T06:15:31;5.47;;;2.90;;
59147;SDS011;44930;52.878;6.168;2023-07-29T06:17:57;5.32;;;3.35;;
59147;SDS011;44930;52.878;6.168;2023-07-29T06:20:22;7.63;;;3.10;;
59147;SDS011;44930;52.878;6.168;2023-07-29T06:22:48;10.35;;;3.67;;
59147;SDS011;44930;52.878;6.168;2023-07-29T06:25:14;9.75;;;3.80;;
59147;SDS011;44930;52.878;6.168;2023-07-29T06:27:39;6.68;;;3.40;;
59147;SDS011;44930;52.878;6.168;2023-07-29T06:30:05;8.93;;;3.47;;
59147;SDS011;44930;52.878;6.168;2023-07-29T06:32:31;9.30;;;4.30;;
59147;SDS011;44930;52.878;6.168;2023-07-29T06:34:57;9.75;;;3.90;;
59147;SDS011;44930;52.878;6.168;2023-07-29T06:37:22;7.75;;;3.83;;
59147;SDS011;44930;52.878;6.168;2023-07-29T06:39:48;7.03;;;3.65;;
59147;SDS011;44930;52.878;6.168;2023-07-29T06:42:13;6.80;;;3.65;;
59147;SDS011;44930;52.878;6.168;2023-07-29T06:44:39;9.07;;;4.63;;
59147;SDS011;44930;52.878;6.168;2023-07-29T06:47:05;9.98;;;4.10;;
59147;SDS011;44930;52.878;6.168;2023-07-29T06:49:30;6.25;;;3.47;;
59147;SDS011;44930;52.878;6.168;2023-07-29T06:51:56;10.27;;;4.65;;
59147;SDS011;44930;52.878;6.168;2023-07-29T06:54:25;9.35;;;4.60;;
59147;SDS011;44930;52.878;6.168;2023-07-29T06:56:53;6.78;;;3.20;;
59147;SDS011;44930;52.878;6.168;2023-07-29T06:59:19;9.13;;;4.15;;
59147;SDS011;44930;52.878;6.168;2023-07-29T07:01:45;9.05;;;4.05;;
59147;SDS011;44930;52.878;6.168;2023-07-29T07:04:11;7.03;;;3.60;;
59147;SDS011;44930;52.878;6.168;2023-07-29T07:06:36;7.93;;;4.05;;
59147;SDS011;44930;52.878;6.168;2023-07-29T07:09:02;7.07;;;3.78;;
59147;SDS011;44930;52.878;6.168;2023-07-29T07:11:28;11.15;;;3.78;;
59147;SDS011;44930;52.878;6.168;2023-07-29T07:13:53;7.43;;;4.65;;
59147;SDS011;44930;52.878;6.168;2023-07-29T07:16:19;9.65;;;3.85;;
59147;SDS011;44930;52.878;6.168;2023-07-29T07:18:44;6.15;;;3.58;;
59147;SDS011;44930;52.878;6.168;2023-07-29T07:21:10;7.35;;;3.20;;
59147;SDS011;44930;52.878;6.168;2023-07-29T07:23:35;14.45;;;4.38;;
59147;SDS011;44930;52.878;6.168;2023-07-29T07:26:01;8.27;;;4.10;;
59147;SDS011;44930;52.878;6.168;2023-07-29T07:28:27;9.50;;;3.83;;
59147;SDS011;44930;52.878;6.168;2023-07-29T07:30:53;9.02;;;3.80;;
59147;SDS011;44930;52.878;6.168;2023-07-29T07:33:20;9.77;;;3.83;;
59147;SDS011;44930;52.878;6.168;2023-07-29T07:35:46;9.65;;;3.55;;
59147;SDS011;44930;52.878;6.168;2023-07-29T07:38:12;8.20;;;3.78;;
59147;SDS011;44930;52.878;6.168;2023-07-29T07:40:37;9.05;;;3.95;;
59147;SDS011;44930;52.878;6.168;2023-07-29T07:43:03;10.13;;;3.90;;
59147;SDS011;44930;52.878;6.168;2023-07-29T07:45:28;8.98;;;3.75;;
59147;SDS011;44930;52.878;6.168;2023-07-29T07:47:54;7.88;;;3.70;;
59147;SDS011;44930;52.878;6.168;2023-07-29T07:50:21;7.55;;;3.72;;
59147;SDS011;44930;52.878;6.168;2023-07-29T07:52:49;10.27;;;3.85;;
59147;SDS011;44930;52.878;6.168;2023-07-29T07:55:14;10.23;;;4.35;;
59147;SDS011;44930;52.878;6.168;2023-07-29T07:57:40;6.35;;;3.22;;
59147;SDS011;44930;52.878;6.168;2023-07-29T08:00:06;8.98;;;3.78;;
59147;SDS011;44930;52.878;6.168;2023-07-29T08:02:32;13.45;;;4.03;;
59147;SDS011;44930;52.878;6.168;2023-07-29T08:04:57;8.82;;;4.20;;
59147;SDS011;44930;52.878;6.168;2023-07-29T08:07:23;10.73;;;4.20;;
59147;SDS011;44930;52.878;6.168;2023-07-29T08:09:49;8.38;;;3.50;;
59147;SDS011;44930;52.878;6.168;2023-07-29T08:12:14;7.40;;;4.00;;
59147;SDS011;44930;52.878;6.168;2023-07-29T08:14:40;7.43;;;3.60;;
59147;SDS011;44930;52.878;6.168;2023-07-29T08:17:06;7.10;;;3.53;;
59147;SDS011;44930;52.878;6.168;2023-07-29T08:19:31;7.95;;;3.55;;
59147;SDS011;44930;52.878;6.168;2023-07-29T08:21:57;6.95;;;3.60;;
59147;SDS011;44930;52.878;6.168;2023-07-29T08:24:23;6.28;;;3.20;;
59147;SDS011;44930;52.878;6.168;2023-07-29T08:26:48;6.93;;;3.47;;
59147;SDS011;44930;52.878;6.168;2023-07-29T08:29:14;8.50;;;3.28;;
59147;SDS011;44930;52.878;6.168;2023-07-29T08:31:39;7.25;;;3.38;;
59147;SDS011;44930;52.878;6.168;2023-07-29T08:34:05;5.50;;;3.22;;
59147;SDS011;44930;52.878;6.168;2023-07-29T08:36:30;7.40;;;3.40;;
59147;SDS011;44930;52.878;6.168;2023-07-29T08:38:56;5.90;;;3.45;;
59147;SDS011;44930;52.878;6.168;2023-07-29T08:41:25;7.35;;;3.53;;
59147;SDS011;44930;52.878;6.168;2023-07-29T08:43:59;5.23;;;2.90;;
59147;SDS011;44930;52.878;6.168;2023-07-29T08:46:32;11.07;;;3.38;;
59147;SDS011;44930;52.878;6.168;2023-07-29T08:48:58;8.85;;;3.00;;
59147;SDS011;44930;52.878;6.168;2023-07-29T08:51:26;5.45;;;2.97;;
59147;SDS011;44930;52.878;6.168;2023-07-29T08:53:52;6.32;;;3.42;;
59147;SDS011;44930;52.878;6.168;2023-07-29T08:56:18;10.25;;;3.15;;
59147;SDS011;44930;52.878;6.168;2023-07-29T08:58:44;9.73;;;3.08;;
59147;SDS011;44930;52.878;6.168;2023-07-29T09:01:11;12.50;;;3.20;;
59147;SDS011;44930;52.878;6.168;2023-07-29T09:03:37;7.20;;;3.00;;
59147;SDS011;44930;52.878;6.168;2023-07-29T09:06:03;6.45;;;3.42;;
59147;SDS011;44930;52.878;6.168;2023-07-29T09:08:28;9.38;;;3.72;;
59147;SDS011;44930;52.878;6.168;2023-07-29T09:10:54;7.65;;;3.13;;
59147;SDS011;44930;52.878;6.168;2023-07-29T09:13:21;10.05;;;3.25;;
59147;SDS011;44930;52.878;6.168;2023-07-29T09:15:46;9.35;;;3.00;;
59147;SDS011;44930;52.878;6.168;2023-07-29T09:18:16;10.02;;;2.40;;
59147;SDS011;44930;52.878;6.168;2023-07-29T09:20:45;9.77;;;2.80;;
59147;SDS011;44930;52.878;6.168;2023-07-29T09:23:12;6.07;;;2.50;;
59147;SDS011;44930;52.878;6.168;2023-07-29T09:25:38;5.93;;;2.78;;
59147;SDS011;44930;52.878;6.168;2023-07-29T09:28:11;6.95;;;2.25;;
59147;SDS011;44930;52.878;6.168;2023-07-29T09:30:39;5.18;;;2.50;;
59147;SDS011;44930;52.878;6.168;2023-07-29T09:33:05;2.95;;;1.92;;
59147;SDS011;44930;52.878;6.168;2023-07-29T09:35:35;5.35;;;2.53;;
59147;SDS011;44930;52.878;6.168;2023-07-29T09:38:02;5.70;;;2.30;;
59147;SDS011;44930;52.878;6.168;2023-07-29T09:40:38;4.88;;;1.80;;
59147;SDS011;44930;52.878;6.168;2023-07-29T09:43:05;5.80;;;1.92;;
59147;SDS011;44930;52.878;6.168;2023-07-29T09:45:33;5.22;;;1.90;;
59147;SDS011;44930;52.878;6.168;2023-07-29T09:48:00;10.63;;;3.20;;
59147;SDS011;44930;52.878;6.168;2023-07-29T09:50:27;24.30;;;3.10;;
59147;SDS011;44930;52.878;6.168;2023-07-29T09:52:53;5.75;;;1.88;;
59147;SDS011;44930;52.878;6.168;2023-07-29T09:55:23;3.25;;;1.40;;
59147;SDS011;44930;52.878;6.168;2023-07-29T09:58:00;4.13;;;1.45;;
59147;SDS011;44930;52.878;6.168;2023-07-29T10:00:29;4.30;;;1.52;;
59147;SDS011;44930;52.878;6.168;2023-07-29T10:02:57;2.95;;;1.40;;
59147;SDS011;44930;52.878;6.168;2023-07-29T10:05:25;4.82;;;1.63;;
59147;SDS011;44930;52.878;6.168;2023-07-29T10:07:51;5.32;;;2.00;;
59147;SDS011;44930;52.878;6.168;2023-07-29T10:10:17;4.22;;;1.70;;
59147;SDS011;44930;52.878;6.168;2023-07-29T10:12:43;5.05;;;1.70;;
59147;SDS011;44930;52.878;6.168;2023-07-29T10:15:09;4.95;;;1.60;;
59147;SDS011;44930;52.878;6.168;2023-07-29T10:17:35;4.03;;;1.58;;
59147;SDS011;44930;52.878;6.168;2023-07-29T10:20:09;3.60;;;1.73;;
59147;SDS011;44930;52.878;6.168;2023-07-29T10:25:08;4.03;;;1.52;;
59147;SDS011;44930;52.878;6.168;2023-07-29T10:27:44;4.53;;;1.40;;
59147;SDS011;44930;52.878;6.168;2023-07-29T10:30:13;5.22;;;1.35;;
59147;SDS011;44930;52.878;6.168;2023-07-29T10:32:41;3.63;;;1.50;;
59147;SDS011;44930;52.878;6.168;2023-07-29T10:35:09;4.00;;;1.50;;
59147;SDS011;44930;52.878;6.168;2023-07-29T10:37:35;4.70;;;1.75;;
59147;SDS011;44930;52.878;6.168;2023-07-29T10:40:02;3.53;;;1.80;;
59147;SDS011;44930;52.878;6.168;2023-07-29T10:42:32;3.55;;;1.58;;
59147;SDS011;44930;52.878;6.168;2023-07-29T10:44:57;4.82;;;1.60;;
59147;SDS011;44930;52.878;6.168;2023-07-29T10:49:50;4.30;;;2.10;;
59147;SDS011;44930;52.878;6.168;2023-07-29T10:52:40;3.33;;;1.60;;
59147;SDS011;44930;52.878;6.168;2023-07-29T10:55:28;7.03;;;1.90;;
59147;SDS011;44930;52.878;6.168;2023-07-29T11:00:33;5.40;;;2.10;;
59147;SDS011;44930;52.878;6.168;2023-07-29T11:03:00;5.60;;;2.20;;
59147;SDS011;44930;52.878;6.168;2023-07-29T11:05:46;5.93;;;1.80;;
59147;SDS011;44930;52.878;6.168;2023-07-29T11:08:36;8.70;;;2.38;;
59147;SDS011;44930;52.878;6.168;2023-07-29T11:11:08;5.85;;;1.95;;
59147;SDS011;44930;52.878;6.168;2023-07-29T11:13:37;5.22;;;2.60;;
59147;SDS011;44930;52.878;6.168;2023-07-29T11:16:03;9.20;;;1.98;;
59147;SDS011;44930;52.878;6.168;2023-07-29T11:18:31;5.53;;;2.13;;
59147;SDS011;44930;52.878;6.168;2023-07-29T11:20:59;5.38;;;2.50;;
59147;SDS011;44930;52.878;6.168;2023-07-29T11:23:28;4.95;;;2.13;;
59147;SDS011;44930;52.878;6.168;2023-07-29T11:25:54;5.63;;;2.60;;
59147;SDS011;44930;52.878;6.168;2023-07-29T11:28:20;7.97;;;2.25;;
59147;SDS011;44930;52.878;6.168;2023-07-29T11:30:47;6.10;;;2.83;;
59147;SDS011;44930;52.878;6.168;2023-07-29T11:33:12;7.18;;;2.50;;
59147;SDS011;44930;52.878;6.168;2023-07-29T11:35:38;5.80;;;2.22;;
59147;SDS011;44930;52.878;6.168;2023-07-29T11:38:04;6.90;;;2.88;;
59147;SDS011;44930;52.878;6.168;2023-07-29T11:40:30;6.90;;;2.22;;
59147;SDS011;44930;52.878;6.168;2023-07-29T11:42:55;7.32;;;2.25;;
59147;SDS011;44930;52.878;6.168;2023-07-29T11:45:21;14.05;;;3.25;;
59147;SDS011;44930;52.878;6.168;2023-07-29T11:47:48;5.45;;;2.50;;
59147;SDS011;44930;52.878;6.168;2023-07-29T11:50:14;8.30;;;3.03;;
59147;SDS011;44930;52.878;6.168;2023-07-29T11:52:40;11.25;;;3.08;;
59147;SDS011;44930;52.878;6.168;2023-07-29T11:55:07;5.57;;;2.28;;
59147;SDS011;44930;52.878;6.168;2023-07-29T11:57:34;4.47;;;2.35;;
59147;SDS011;44930;52.878;6.168;2023-07-29T12:00:05;6.13;;;2.55;;
59147;SDS011;44930;52.878;6.168;2023-07-29T12:02:32;6.72;;;2.70;;
59147;SDS011;44930;52.878;6.168;2023-07-29T12:04:59;9.07;;;2.20;;
59147;SDS011;44930;52.878;6.168;2023-07-29T12:07:26;4.95;;;1.67;;
59147;SDS011;44930;52.878;6.168;2023-07-29T12:09:52;6.75;;;2.45;;
59147;SDS011;44930;52.878;6.168;2023-07-29T12:12:18;4.95;;;2.67;;
59147;SDS011;44930;52.878;6.168;2023-07-29T12:14:44;2.97;;;1.90;;
59147;SDS011;44930;52.878;6.168;2023-07-29T12:17:11;4.82;;;2.20;;
59147;SDS011;44930;52.878;6.168;2023-07-29T12:19:38;5.38;;;2.20;;
59147;SDS011;44930;52.878;6.168;2023-07-29T12:22:06;8.40;;;2.00;;
59147;SDS011;44930;52.878;6.168;2023-07-29T12:24:34;7.55;;;2.33;;
59147;SDS011;44930;52.878;6.168;2023-07-29T12:27:01;7.70;;;2.85;;
59147;SDS011;44930;52.878;6.168;2023-07-29T12:29:27;8.27;;;1.98;;
59147;SDS011;44930;52.878;6.168;2023-07-29T12:32:00;7.20;;;2.05;;
59147;SDS011;44930;52.878;6.168;2023-07-29T12:34:29;5.50;;;1.80;;
59147;SDS011;44930;52.878;6.168;2023-07-29T12:36:56;4.47;;;2.00;;
59147;SDS011;44930;52.878;6.168;2023-07-29T12:39:27;5.55;;;2.15;;
59147;SDS011;44930;52.878;6.168;2023-07-29T12:41:54;4.47;;;2.00;;
59147;SDS011;44930;52.878;6.168;2023-07-29T12:44:22;6.88;;;2.40;;
59147;SDS011;44930;52.878;6.168;2023-07-29T12:46:48;3.17;;;1.30;;
59147;SDS011;44930;52.878;6.168;2023-07-29T12:49:14;3.28;;;1.40;;
59147;SDS011;44930;52.878;6.168;2023-07-29T12:51:40;3.83;;;1.48;;
59147;SDS011;44930;52.878;6.168;2023-07-29T12:54:06;2.90;;;1.20;;
59147;SDS011;44930;52.878;6.168;2023-07-29T12:56:32;2.45;;;1.25;;
59147;SDS011;44930;52.878;6.168;2023-07-29T12:58:58;4.20;;;1.40;;
59147;SDS011;44930;52.878;6.168;2023-07-29T13:01:25;2.10;;;0.95;;
59147;SDS011;44930;52.878;6.168;2023-07-29T13:03:51;4.18;;;1.10;;
59147;SDS011;44930;52.878;6.168;2023-07-29T13:06:16;2.42;;;0.80;;
59147;SDS011;44930;52.878;6.168;2023-07-29T13:08:42;3.38;;;1.10;;
59147;SDS011;44930;52.878;6.168;2023-07-29T13:11:09;2.85;;;1.10;;
59147;SDS011;44930;52.878;6.168;2023-07-29T13:13:35;4.63;;;1.42;;
59147;SDS011;44930;52.878;6.168;2023-07-29T13:16:00;4.70;;;1.45;;
59147;SDS011;44930;52.878;6.168;2023-07-29T13:18:26;1.63;;;0.90;;
59147;SDS011;44930;52.878;6.168;2023-07-29T13:20:52;2.78;;;0.60;;
59147;SDS011;44930;52.878;6.168;2023-07-29T13:23:18;2.95;;;0.73;;
59147;SDS011;44930;52.878;6.168;2023-07-29T13:25:43;5.25;;;1.20;;
59147;SDS011;44930;52.878;6.168;2023-07-29T13:28:09;2.80;;;1.02;;
59147;SDS011;44930;52.878;6.168;2023-07-29T13:30:35;3.97;;;1.10;;
59147;SDS011;44930;52.878;6.168;2023-07-29T13:33:01;1.85;;;1.05;;
59147;SDS011;44930;52.878;6.168;2023-07-29T13:35:27;2.92;;;1.00;;
59147;SDS011;44930;52.878;6.168;2023-07-29T13:37:53;6.88;;;1.42;;
59147;SDS011;44930;52.878;6.168;2023-07-29T13:40:18;3.75;;;0.85;;
59147;SDS011;44930;52.878;6.168;2023-07-29T13:42:44;1.75;;;0.82;;
59147;SDS011;44930;52.878;6.168;2023-07-29T13:45:10;3.47;;;1.23;;
59147;SDS011;44930;52.878;6.168;2023-07-29T13:47:35;3.17;;;1.50;;
59147;SDS011;44930;52.878;6.168;2023-07-29T13:50:01;2.22;;;1.13;;
59147;SDS011;44930;52.878;6.168;2023-07-29T13:52:27;3.65;;;0.82;;
59147;SDS011;44930;52.878;6.168;2023-07-29T13:54:53;17.25;;;1.70;;
59147;SDS011;44930;52.878;6.168;2023-07-29T13:57:18;3.00;;;0.93;;
59147;SDS011;44930;52.878;6.168;2023-07-29T13:59:44;2.25;;;1.23;;
59147;SDS011;44930;52.878;6.168;2023-07-29T14:02:11;3.90;;;1.17;;
59147;SDS011;44930;52.878;6.168;2023-07-29T14:04:36;1.77;;;0.77;;
59147;SDS011;44930;52.878;6.168;2023-07-29T14:07:02;5.55;;;1.00;;
59147;SDS011;44930;52.878;6.168;2023-07-29T14:09:28;4.20;;;1.05;;
59147;SDS011;44930;52.878;6.168;2023-07-29T14:11:54;3.50;;;1.08;;
59147;SDS011;44930;52.878;6.168;2023-07-29T14:14:19;4.18;;;1.20;;
59147;SDS011;44930;52.878;6.168;2023-07-29T14:16:45;3.90;;;1.23;;
59147;SDS011;44930;52.878;6.168;2023-07-29T14:19:11;5.82;;;1.58;;
59147;SDS011;44930;52.878;6.168;2023-07-29T14:21:37;2.42;;;1.00;;
59147;SDS011;44930;52.878;6.168;2023-07-29T14:24:03;2.85;;;1.30;;
59147;SDS011;44930;52.878;6.168;2023-07-29T14:26:28;2.65;;;0.98;;
59147;SDS011;44930;52.878;6.168;2023-07-29T14:28:54;2.47;;;0.95;;
59147;SDS011;44930;52.878;6.168;2023-07-29T14:31:19;4.38;;;1.23;;
59147;SDS011;44930;52.878;6.168;2023-07-29T14:33:45;4.53;;;1.30;;
59147;SDS011;44930;52.878;6.168;2023-07-29T14:36:10;2.05;;;0.70;;
59147;SDS011;44930;52.878;6.168;2023-07-29T14:38:36;1.10;;;0.77;;
59147;SDS011;44930;52.878;6.168;2023-07-29T14:41:02;3.47;;;1.00;;
59147;SDS011;44930;52.878;6.168;2023-07-29T14:43:29;3.53;;;0.90;;
59147;SDS011;44930;52.878;6.168;2023-07-29T14:45:55;4.40;;;1.23;;
59147;SDS011;44930;52.878;6.168;2023-07-29T14:48:21;3.75;;;1.27;;
59147;SDS011;44930;52.878;6.168;2023-07-29T14:50:46;2.95;;;1.23;;
59147;SDS011;44930;52.878;6.168;2023-07-29T14:53:12;2.35;;;0.80;;
59147;SDS011;44930;52.878;6.168;2023-07-29T14:55:38;3.28;;;1.20;;